createdAt,value
2023-01-12T00:01:06.127Z,100731.94
2023-01-12T00:03:32.464Z,100734.72
2023-01-12T00:06:01.001Z,100739.00
2023-01-12T00:08:27.329Z,100740.38
2023-01-12T00:10:56.354Z,100747.53
2023-01-12T00:13:22.708Z,100750.41
2023-01-12T00:16:07.604Z,100747.53
2023-01-12T00:18:34.031Z,100741.78
2023-01-12T00:21:00.409Z,100727.31
2023-01-12T00:23:26.800Z,100727.31
2023-01-12T00:25:54.255Z,100714.34
2023-01-12T00:28:20.621Z,100724.34
2023-01-12T00:30:46.953Z,100724.34
2023-01-12T00:33:13.693Z,100712.84
2023-01-12T00:35:40.052Z,100714.88
2023-01-12T00:38:06.395Z,100721.38
2023-01-12T00:40:32.804Z,100714.88
2023-01-12T00:43:18.149Z,100709.78
2023-01-12T00:45:44.504Z,100708.41
2023-01-12T00:48:12.743Z,100711.91
2023-01-12T00:50:39.065Z,100698.94
2023-01-12T00:53:05.400Z,100703.97
2023-01-12T00:55:31.742Z,100696.06
2023-01-12T00:57:58.112Z,100711.09
2023-01-12T01:00:24.485Z,100701.00
2023-01-12T01:02:50.839Z,100711.09
2023-01-12T01:05:17.854Z,100709.63
2023-01-12T01:07:46.311Z,100711.72
2023-01-12T01:10:12.994Z,100705.97
2023-01-12T01:12:39.660Z,100712.50
2023-01-12T01:15:06.161Z,100716.19
2023-01-12T01:17:32.489Z,100712.66
2023-01-12T01:19:58.813Z,100712.66
2023-01-12T01:22:25.193Z,100699.78
2023-01-12T01:24:51.531Z,100691.16
2023-01-12T01:27:17.882Z,100686.88
2023-01-12T01:29:44.230Z,100679.66
2023-01-12T01:32:10.570Z,100675.28
2023-01-12T01:34:37.114Z,100673.91
2023-01-12T01:37:03.501Z,100673.91
2023-01-12T01:39:29.862Z,100679.66
2023-01-12T01:41:56.247Z,100672.41
2023-01-12T01:44:31.882Z,100677.41
2023-01-12T01:47:01.162Z,100677.41
2023-01-12T01:49:31.810Z,100670.94
2023-01-12T01:52:00.302Z,100667.97
2023-01-12T01:54:27.331Z,100658.69
2023-01-12T01:56:54.427Z,100655.00
2023-01-12T01:59:21.910Z,100652.13
2023-01-12T02:01:48.319Z,100631.22
2023-01-12T02:04:14.726Z,100619.00
2023-01-12T02:06:41.098Z,100626.88
2023-01-12T02:09:14.902Z,100623.28
2023-01-12T02:12:02.977Z,100608.81
2023-01-12T02:14:48.125Z,100613.81
2023-01-12T02:17:25.010Z,100617.44
2023-01-12T02:19:53.983Z,100626.06
2023-01-12T02:22:28.144Z,100618.81
2023-01-12T02:25:17.439Z,100614.56
2023-01-12T02:27:49.514Z,100612.34
2023-01-12T02:30:36.968Z,100602.97
2023-01-12T02:33:03.256Z,100620.88
2023-01-12T02:35:35.355Z,100607.22
2023-01-12T02:38:20.599Z,100607.16
2023-01-12T02:40:59.128Z,100602.78
2023-01-12T02:43:29.072Z,100598.44
2023-01-12T02:46:14.364Z,100592.69
2023-01-12T02:48:43.874Z,100594.75
2023-01-12T02:51:11.836Z,100593.97
2023-01-12T02:53:43.448Z,100588.31
2023-01-12T02:56:10.008Z,100583.97
2023-01-12T02:58:38.707Z,100581.09
2023-01-12T03:01:05.203Z,100591.13
2023-01-12T03:03:31.577Z,100592.53
2023-01-12T03:05:58.020Z,100592.53
2023-01-12T03:08:25.788Z,100585.28
2023-01-12T03:11:01.242Z,100575.28
2023-01-12T03:13:28.193Z,100579.53
2023-01-12T03:15:55.264Z,100576.66
2023-01-12T03:18:29.029Z,100573.78
2023-01-12T03:20:56.271Z,100574.44
2023-01-12T03:23:34.029Z,100581.56
2023-01-12T03:26:00.570Z,100570.84
2023-01-12T03:28:28.777Z,100579.47
2023-01-12T03:30:56.533Z,100575.09
2023-01-12T03:33:22.911Z,100575.09
2023-01-12T03:35:51.228Z,100574.34
2023-01-12T03:38:25.031Z,100579.28
2023-01-12T03:40:53.741Z,100570.66
2023-01-12T03:43:31.106Z,100567.78
2023-01-12T03:45:58.962Z,100560.63
2023-01-12T03:48:36.569Z,100563.50
2023-01-12T03:51:23.078Z,100567.13
2023-01-12T03:53:49.671Z,100563.59
2023-01-12T03:56:16.592Z,100560.81
2023-01-12T03:58:43.014Z,100558.66
2023-01-12T04:01:09.435Z,100572.50
2023-01-12T04:03:35.904Z,100559.59
2023-01-12T04:06:02.293Z,100546.72
2023-01-12T04:08:28.663Z,100552.44
2023-01-12T04:10:56.189Z,100543.84
2023-01-12T04:13:22.552Z,100537.41
2023-01-12T04:15:49.003Z,100548.16
2023-01-12T04:18:15.333Z,100538.09
2023-01-12T04:20:41.663Z,100542.44
2023-01-12T04:23:08.022Z,100538.16
2023-01-12T04:25:34.395Z,100530.94
2023-01-12T04:28:01.920Z,100530.94
2023-01-12T04:30:28.615Z,100522.31
2023-01-12T04:32:55.652Z,100519.44
2023-01-12T04:35:22.118Z,100518.69
2023-01-12T04:37:48.447Z,100519.44
2023-01-12T04:40:14.854Z,100525.91
2023-01-12T04:43:07.913Z,100519.53
2023-01-12T04:45:35.480Z,100523.84
2023-01-12T04:48:02.874Z,100513.84
2023-01-12T04:50:29.209Z,100519.59
2023-01-12T04:52:55.545Z,100510.97
2023-01-12T04:55:21.908Z,100515.31
2023-01-12T04:57:48.235Z,100523.94
2023-01-12T05:00:14.582Z,100513.13
2023-01-12T05:02:40.933Z,100505.97
2023-01-12T05:05:08.611Z,100508.09
2023-01-12T05:07:34.930Z,100504.50
2023-01-12T05:10:20.098Z,100498.75
2023-01-12T05:12:46.427Z,100495.09
2023-01-12T05:15:12.787Z,100488.63
2023-01-12T05:17:39.148Z,100498.66
2023-01-12T05:20:06.292Z,100492.19
2023-01-12T05:22:32.694Z,100492.19
2023-01-12T05:24:59.018Z,100492.19
2023-01-12T05:27:25.368Z,100490.78
2023-01-12T05:29:52.732Z,100499.41
2023-01-12T05:32:19.335Z,100485.75
2023-01-12T05:34:45.670Z,100499.47
2023-01-12T05:37:12.006Z,100490.84
2023-01-12T05:39:38.342Z,100489.44
2023-01-12T05:42:23.223Z,100494.00
2023-01-12T05:44:49.740Z,100500.66
2023-01-12T05:47:16.093Z,100490.63
2023-01-12T05:49:42.437Z,100488.38
2023-01-12T05:52:08.786Z,100489.72
2023-01-12T05:54:35.116Z,100497.50
2023-01-12T05:57:01.447Z,100492.50
2023-01-12T05:59:27.851Z,100496.69
2023-01-12T06:01:54.491Z,100487.41
2023-01-12T06:04:21.132Z,100478.03
2023-01-12T06:06:48.712Z,100485.28
2023-01-12T06:09:15.086Z,100485.28
2023-01-12T06:12:00.202Z,100476.56
2023-01-12T06:14:26.827Z,100488.81
2023-01-12T06:16:53.210Z,100486.56
2023-01-12T06:19:19.542Z,100477.94
2023-01-12T06:21:45.878Z,100479.34
2023-01-12T06:24:12.294Z,100482.97
2023-01-12T06:26:39.100Z,100480.09
2023-01-12T06:29:07.008Z,100472.19
2023-01-12T06:31:33.647Z,100475.06
2023-01-12T06:34:00.100Z,100460.78
2023-01-12T06:36:26.428Z,100444.31
2023-01-12T06:38:52.937Z,100444.94
2023-01-12T06:41:38.232Z,100451.44
2023-01-12T06:44:04.730Z,100449.28
2023-01-12T06:46:31.151Z,100442.06
2023-01-12T06:48:58.086Z,100447.81
2023-01-12T06:51:24.510Z,100442.06
2023-01-12T06:53:50.846Z,100447.09
2023-01-12T06:56:17.205Z,100440.56
2023-01-12T06:58:43.560Z,100440.56
2023-01-12T07:01:09.982Z,100434.91
2023-01-12T07:03:36.407Z,100435.72
2023-01-12T07:06:02.757Z,100441.47
2023-01-12T07:08:29.086Z,100429.25
2023-01-12T07:10:55.484Z,100427.09
2023-01-12T07:13:22.023Z,100437.97
2023-01-12T07:15:48.424Z,100432.28
2023-01-12T07:18:14.776Z,100425.13
2023-01-12T07:20:41.111Z,100428.09
2023-01-12T07:23:07.491Z,100426.63
2023-01-12T07:25:33.827Z,100415.78
2023-01-12T07:28:00.263Z,100419.38
2023-01-12T07:30:26.847Z,100410.03
2023-01-12T07:32:53.419Z,100411.44
2023-01-12T07:35:19.780Z,100398.44
2023-01-12T07:37:53.845Z,100403.47
2023-01-12T07:40:20.197Z,100401.09
2023-01-12T07:42:46.519Z,100390.97
2023-01-12T07:45:12.873Z,100388.34
2023-01-12T07:47:39.336Z,100381.53
2023-01-12T07:50:05.750Z,100379.56
2023-01-12T07:52:32.113Z,100386.06
2023-01-12T07:54:58.448Z,100376.63
2023-01-12T07:57:24.795Z,100379.25
2023-01-12T07:59:51.138Z,100371.44
2023-01-12T08:02:18.113Z,100383.34
2023-01-12T08:04:44.688Z,100378.25
2023-01-12T08:07:11.083Z,100377.75
2023-01-12T08:09:37.452Z,100364.22
2023-01-12T08:12:03.860Z,100369.22
2023-01-12T08:14:34.061Z,100375.63
2023-01-12T08:17:01.681Z,100373.97
2023-01-12T08:19:31.051Z,100361.09
2023-01-12T08:21:58.800Z,100360.38
2023-01-12T08:24:26.572Z,100356.31
2023-01-12T08:26:53.183Z,100360.56
2023-01-12T08:29:33.527Z,100360.72
2023-01-12T08:32:01.609Z,100353.09
2023-01-12T08:34:29.980Z,100352.84
2023-01-12T08:36:56.369Z,100344.22
2023-01-12T08:39:22.763Z,100338.97
2023-01-12T08:41:49.153Z,100348.13
2023-01-12T08:44:15.606Z,100351.41
2023-01-12T08:46:44.947Z,100344.53
2023-01-12T08:49:11.439Z,100337.44
2023-01-12T08:51:39.489Z,100340.41
2023-01-12T08:54:06.703Z,100334.66
2023-01-12T08:56:33.362Z,100333.19
2023-01-12T08:58:59.851Z,100333.19
2023-01-12T09:01:27.399Z,100324.66
2023-01-12T09:03:53.940Z,100336.00
2023-01-12T09:06:21.623Z,100327.66
2023-01-12T09:08:48.159Z,100325.56
2023-01-12T09:11:14.747Z,100314.06
2023-01-12T09:13:41.120Z,100310.44
2023-01-12T09:16:12.684Z,100305.53
2023-01-12T09:18:39.641Z,100309.88
2023-01-12T09:21:06.994Z,100289.00
2023-01-12T09:23:33.322Z,100299.84
2023-01-12T09:26:05.945Z,100289.00
2023-01-12T09:28:32.395Z,100302.69
2023-01-12T09:31:02.113Z,100308.44
2023-01-12T09:33:28.836Z,100295.19
2023-01-12T09:35:59.395Z,100298.38
2023-01-12T09:38:25.773Z,100292.97
2023-01-12T09:40:52.263Z,100286.63
2023-01-12T09:43:37.158Z,100278.91
2023-01-12T09:46:21.852Z,100270.34
2023-01-12T09:48:48.191Z,100271.16
2023-01-12T09:51:16.927Z,100260.44
2023-01-12T09:53:43.378Z,100253.34
2023-01-12T09:56:15.152Z,100266.31
2023-01-12T09:58:53.706Z,100254.81
2023-01-12T10:01:28.666Z,100250.56
2023-01-12T10:03:55.387Z,100252.69
2023-01-12T10:06:21.714Z,100249.84
2023-01-12T10:08:49.897Z,100251.28
2023-01-12T10:11:34.738Z,100252.03
2023-01-12T10:14:12.998Z,100240.53
2023-01-12T10:16:47.397Z,100251.28
2023-01-12T10:19:18.664Z,100233.31
2023-01-12T10:21:45.008Z,100243.41
2023-01-12T10:24:14.036Z,100234.78
2023-01-12T10:26:43.900Z,100238.38
2023-01-12T10:29:10.400Z,100249.16
2023-01-12T10:31:36.813Z,100239.06
2023-01-12T10:34:07.152Z,100220.19
2023-01-12T10:36:34.483Z,100216.34
2023-01-12T10:39:03.440Z,100223.19
2023-01-12T10:41:30.335Z,100221.81
2023-01-12T10:43:56.667Z,100220.34
2023-01-12T10:46:24.072Z,100220.34
2023-01-12T10:48:50.966Z,100197.34
2023-01-12T10:51:20.407Z,100211.22
2023-01-12T10:53:47.981Z,100201.47
2023-01-12T10:56:33.561Z,100199.25
2023-01-12T10:59:01.196Z,100180.56
2023-01-12T11:01:41.945Z,100174.06
2023-01-12T11:04:10.243Z,100169.78
2023-01-12T11:06:38.129Z,100164.75
2023-01-12T11:09:17.237Z,100160.50
2023-01-12T11:11:43.616Z,100157.63
2023-01-12T11:14:13.114Z,100154.75
2023-01-12T11:16:41.550Z,100157.72
2023-01-12T11:19:08.049Z,100161.97
2023-01-12T11:21:34.724Z,100151.34
2023-01-12T11:24:10.450Z,100146.69
2023-01-12T11:26:36.964Z,100152.19
2023-01-12T11:29:14.654Z,100148.03
2023-01-12T11:31:40.971Z,100140.59
2023-01-12T11:34:10.224Z,100145.69
2023-01-12T11:36:38.709Z,100142.38
2023-01-12T11:39:05.665Z,100129.28
2023-01-12T11:41:39.410Z,100136.00
2023-01-12T11:44:16.417Z,100130.22
2023-01-12T11:46:46.745Z,100133.16
2023-01-12T11:49:17.978Z,100123.38
2023-01-12T11:51:47.237Z,100126.00
2023-01-12T11:54:16.751Z,100125.94
2023-01-12T11:56:50.713Z,100124.72
2023-01-12T11:59:32.452Z,100130.59
2023-01-12T12:02:05.963Z,100123.44
2023-01-12T12:04:51.128Z,100136.00
2023-01-12T12:07:20.745Z,100111.22
2023-01-12T12:09:49.979Z,100110.75
2023-01-12T12:12:22.911Z,100113.31
2023-01-12T12:15:09.424Z,100106.13
2023-01-12T12:17:44.763Z,100117.50
2023-01-12T12:20:16.904Z,100102.84
2023-01-12T12:23:01.841Z,100114.88
2023-01-12T12:25:33.947Z,100115.06
2023-01-12T12:28:20.481Z,100110.50
2023-01-12T12:30:59.252Z,100106.78
2023-01-12T12:33:50.542Z,100097.03
2023-01-12T12:36:25.808Z,100100.66
2023-01-12T12:39:10.830Z,100112.53
2023-01-12T12:42:08.276Z,100103.84
2023-01-12T12:45:12.152Z,100109.63
2023-01-12T12:47:42.109Z,100102.00
2023-01-12T12:50:20.189Z,100105.94
2023-01-12T12:52:50.013Z,100102.16
2023-01-12T12:55:16.394Z,100099.72
2023-01-12T12:57:58.369Z,100098.63
2023-01-12T13:00:28.866Z,100104.31
2023-01-12T13:02:55.395Z,100100.28
2023-01-12T13:05:40.675Z,100107.34
2023-01-12T13:08:23.237Z,100104.47
2023-01-12T13:10:50.372Z,100107.44
2023-01-12T13:13:22.934Z,100103.03
2023-01-12T13:15:50.231Z,100100.09
2023-01-12T13:18:45.662Z,100103.66
2023-01-12T13:21:27.433Z,100086.97
2023-01-12T13:23:54.242Z,100094.19
2023-01-12T13:26:32.590Z,100096.41
2023-01-12T13:29:17.607Z,100092.88
2023-01-12T13:31:43.951Z,100085.19
2023-01-12T13:34:29.661Z,100093.63
2023-01-12T13:37:22.354Z,100095.28
2023-01-12T13:39:52.072Z,100097.38
2023-01-12T13:42:38.027Z,100090.88
2023-01-12T13:45:04.657Z,100097.97
2023-01-12T13:47:33.059Z,100089.94
2023-01-12T13:49:59.987Z,100107.13
2023-01-12T13:52:33.929Z,100106.41
2023-01-12T13:55:00.309Z,100104.94
2023-01-12T13:57:27.345Z,100104.88
2023-01-12T14:00:08.563Z,100098.34
2023-01-12T14:02:40.792Z,100110.56
2023-01-12T14:05:16.360Z,100100.53
2023-01-12T14:07:45.395Z,100114.84
2023-01-12T14:10:26.334Z,100112.16
2023-01-12T14:13:28.143Z,100108.16
2023-01-12T14:16:19.691Z,100093.81
2023-01-12T14:18:47.018Z,100102.53
2023-01-12T14:21:20.617Z,100094.16
2023-01-12T14:23:46.967Z,100101.94
2023-01-12T14:26:14.820Z,100105.59
2023-01-12T14:28:42.623Z,100111.47
2023-01-12T14:31:15.493Z,100105.72
2023-01-12T14:33:47.130Z,100101.31
2023-01-12T14:36:15.306Z,100108.56
2023-01-12T14:38:42.090Z,100098.50
2023-01-12T14:41:32.430Z,100101.94
2023-01-12T14:44:17.404Z,100114.56
2023-01-12T14:46:46.395Z,100105.25
2023-01-12T14:49:19.774Z,100101.56
2023-01-12T14:51:54.499Z,100105.78
2023-01-12T14:54:23.923Z,100101.38
2023-01-12T14:56:56.779Z,100101.38
2023-01-12T14:59:24.632Z,100107.34
2023-01-12T15:01:51.734Z,100111.97
2023-01-12T15:04:19.703Z,100114.84
2023-01-12T15:06:46.352Z,100112.69
2023-01-12T15:09:26.210Z,100107.34
2023-01-12T15:11:52.751Z,100111.75
2023-01-12T15:14:25.876Z,100104.56
2023-01-12T15:17:11.253Z,100116.13
2023-01-12T15:19:56.158Z,100111.88
2023-01-12T15:22:43.890Z,100120.00
2023-01-12T15:25:32.865Z,100125.09
2023-01-12T15:27:59.187Z,100108.59
2023-01-12T15:30:25.503Z,100114.84
2023-01-12T15:32:51.840Z,100112.97
2023-01-12T15:35:21.190Z,100104.19
2023-01-12T15:37:47.622Z,100117.91
2023-01-12T15:40:14.030Z,100120.25
2023-01-12T15:42:40.401Z,100115.91
2023-01-12T15:45:18.928Z,100110.28
2023-01-12T15:47:45.281Z,100111.00
2023-01-12T15:50:11.629Z,100118.84
2023-01-12T15:52:41.536Z,100120.16
2023-01-12T15:55:10.260Z,100121.66
2023-01-12T15:57:36.694Z,100116.56
2023-01-12T16:00:03.227Z,100120.16
2023-01-12T16:02:35.515Z,100118.72
2023-01-12T16:05:05.080Z,100123.13
2023-01-12T16:07:31.465Z,100123.31
2023-01-12T16:09:58.054Z,100130.53
2023-01-12T16:12:24.411Z,100136.28
2023-01-12T16:14:50.953Z,100137.09
2023-01-12T16:17:17.470Z,100126.13
2023-01-12T16:19:43.834Z,100133.41
2023-01-12T16:22:21.138Z,100129.28
2023-01-12T16:24:48.067Z,100130.66
2023-01-12T16:27:14.653Z,100125.56
2023-01-12T16:29:41.095Z,100130.72
2023-01-12T16:32:07.584Z,100135.06
2023-01-12T16:34:33.993Z,100129.28
2023-01-12T16:37:00.892Z,100140.78
2023-01-12T16:39:27.823Z,100140.78
2023-01-12T16:42:00.131Z,100132.09
2023-01-12T16:44:27.172Z,100136.44
2023-01-12T16:46:53.520Z,100132.09
2023-01-12T16:49:19.882Z,100137.84
2023-01-12T16:51:46.411Z,100129.38
2023-01-12T16:54:12.844Z,100130.72
2023-01-12T16:56:39.731Z,100127.78
2023-01-12T16:59:07.740Z,100133.53
2023-01-12T17:01:35.445Z,100114.63
2023-01-12T17:04:01.929Z,100123.97
2023-01-12T17:06:28.471Z,100119.88
2023-01-12T17:08:54.843Z,100123.13
2023-01-12T17:11:23.356Z,100118.13
2023-01-12T17:13:52.286Z,100122.22
2023-01-12T17:16:18.951Z,100111.09
2023-01-12T17:18:45.595Z,100117.13
2023-01-12T17:21:12.480Z,100114.31
2023-01-12T17:23:39.343Z,100127.41
2023-01-12T17:26:06.126Z,100122.59
2023-01-12T17:28:34.873Z,100120.56
2023-01-12T17:31:11.106Z,100126.28
2023-01-12T17:33:37.595Z,100131.44
2023-01-12T17:36:07.034Z,100122.38
2023-01-12T17:38:33.470Z,100117.44
2023-01-12T17:40:59.825Z,100134.78
2023-01-12T17:43:26.318Z,100120.44
2023-01-12T17:45:52.726Z,100122.03
2023-01-12T17:48:19.630Z,100114.97
2023-01-12T17:50:46.720Z,100117.25
2023-01-12T17:53:13.268Z,100123.50
2023-01-12T17:55:47.575Z,100117.22
2023-01-12T17:58:17.354Z,100129.09
2023-01-12T18:00:44.003Z,100112.44
2023-01-12T18:03:10.506Z,100113.91
2023-01-12T18:05:37.057Z,100106.63
2023-01-12T18:08:03.428Z,100115.91
2023-01-12T18:10:29.768Z,100123.81
2023-01-12T18:12:56.144Z,100118.19
2023-01-12T18:15:23.849Z,100109.50
2023-01-12T18:17:50.684Z,100109.44
2023-01-12T18:20:17.170Z,100105.81
2023-01-12T18:22:43.559Z,100103.47
2023-01-12T18:25:10.184Z,100109.28
2023-01-12T18:27:36.520Z,100104.25
2023-01-12T18:30:02.874Z,100103.47
2023-01-12T18:32:29.223Z,100091.22
2023-01-12T18:34:56.770Z,100100.66
2023-01-12T18:37:23.185Z,100080.53
2023-01-12T18:39:49.605Z,100086.34
2023-01-12T18:42:34.770Z,100077.63
2023-01-12T18:45:03.973Z,100080.59
2023-01-12T18:47:49.200Z,100083.47
2023-01-12T18:50:34.485Z,100081.94
2023-01-12T18:53:19.316Z,100073.31
2023-01-12T18:55:46.400Z,100075.56
2023-01-12T18:58:12.738Z,100075.56
2023-01-12T19:00:39.148Z,100076.25
2023-01-12T19:03:06.146Z,100076.44
2023-01-12T19:05:36.945Z,100077.78
2023-01-12T19:08:26.198Z,100067.72
2023-01-12T19:10:52.575Z,100072.53
2023-01-12T19:13:37.785Z,100074.97
2023-01-12T19:16:22.650Z,100067.78
2023-01-12T19:18:48.996Z,100066.00
2023-01-12T19:21:34.077Z,100072.69
2023-01-12T19:24:19.043Z,100067.66
2023-01-12T19:27:03.666Z,100068.06
2023-01-12T19:29:30.064Z,100063.31
2023-01-12T19:31:56.387Z,100075.97
2023-01-12T19:34:24.700Z,100073.44
2023-01-12T19:36:51.071Z,100071.09
2023-01-12T19:39:26.435Z,100074.63
2023-01-12T19:42:11.232Z,100074.81
2023-01-12T19:44:37.612Z,100066.34
2023-01-12T19:47:03.944Z,100071.50
2023-01-12T19:49:30.281Z,100068.75
2023-01-12T19:51:56.616Z,100070.28
2023-01-12T19:54:22.944Z,100058.78
2023-01-12T19:56:49.280Z,100073.16
2023-01-12T19:59:15.604Z,100063.81
2023-01-12T20:01:42.078Z,100067.41
2023-01-12T20:04:08.662Z,100055.84
2023-01-12T20:06:35.640Z,100060.16
2023-01-12T20:09:01.969Z,100055.09
2023-01-12T20:11:28.370Z,100057.91
2023-01-12T20:13:54.709Z,100066.63
2023-01-12T20:16:21.080Z,100069.41
2023-01-12T20:18:48.630Z,100062.94
2023-01-12T20:21:15.315Z,100070.81
2023-01-12T20:23:41.699Z,100056.38
2023-01-12T20:26:08.201Z,100062.06
2023-01-12T20:28:34.676Z,100052.81
2023-01-12T20:31:01.000Z,100054.38
2023-01-12T20:33:28.310Z,100053.50
2023-01-12T20:35:54.773Z,100043.31
2023-01-12T20:38:22.563Z,100046.91
2023-01-12T20:40:49.525Z,100053.97
2023-01-12T20:43:15.881Z,100048.22
2023-01-12T20:45:42.823Z,100048.22
2023-01-12T20:48:09.912Z,100048.22
2023-01-12T20:50:37.714Z,100050.28
2023-01-12T20:53:04.252Z,100056.78
2023-01-12T20:55:30.750Z,100061.13
2023-01-12T20:57:57.306Z,100043.88
2023-01-12T21:00:23.827Z,100056.78
2023-01-12T21:02:50.392Z,100052.50
2023-01-12T21:05:16.885Z,100045.28
2023-01-12T21:07:43.472Z,100046.03
2023-01-12T21:10:12.049Z,100030.97
2023-01-12T21:12:38.620Z,100042.47
2023-01-12T21:15:05.391Z,100038.94
2023-01-12T21:17:31.915Z,100035.31
2023-01-12T21:19:58.469Z,100024.47
2023-01-12T21:22:25.120Z,100018.06
2023-01-12T21:24:51.644Z,100031.69
2023-01-12T21:27:18.209Z,100030.22
2023-01-12T21:29:45.928Z,100034.53
2023-01-12T21:32:12.338Z,100032.31
2023-01-12T21:34:38.677Z,100029.44
2023-01-12T21:37:05.004Z,100025.81
2023-01-12T21:39:31.336Z,100016.34
2023-01-12T21:42:16.655Z,100022.09
2023-01-12T21:44:43.051Z,100019.19
2023-01-12T21:47:09.416Z,100022.72
2023-01-12T21:49:35.762Z,100019.09
2023-01-12T21:52:02.094Z,100015.47
2023-01-12T21:54:28.914Z,100016.25
2023-01-12T21:56:55.266Z,100011.81
2023-01-12T21:59:21.721Z,100012.50
2023-01-12T22:01:48.524Z,100014.69
2023-01-12T22:04:14.959Z,100014.69
2023-01-12T22:06:41.422Z,100015.38
2023-01-12T22:09:07.811Z,100004.53
2023-01-12T22:11:34.140Z,100008.81
2023-01-12T22:14:00.469Z,100011.69
2023-01-12T22:16:27.091Z,99998.72
2023-01-12T22:18:53.563Z,100003.00
2023-01-12T22:21:20.380Z,99986.47
2023-01-12T22:23:46.720Z,99986.34
2023-01-12T22:26:13.389Z,99995.75
2023-01-12T22:28:40.405Z,99997.25
2023-01-12T22:31:10.278Z,99985.69
2023-01-12T22:33:36.696Z,99990.00
2023-01-12T22:36:03.487Z,99984.13
2023-01-12T22:38:29.846Z,99983.66
2023-01-12T22:40:56.160Z,99977.22
2023-01-12T22:43:28.937Z,99973.63
2023-01-12T22:45:57.806Z,99978.50
2023-01-12T22:48:27.579Z,99972.69
2023-01-12T22:50:54.638Z,99976.91
2023-01-12T22:53:22.064Z,99971.91
2023-01-12T22:55:48.424Z,99969.72
2023-01-12T22:58:14.795Z,99965.34
2023-01-12T23:00:41.583Z,99962.47
2023-01-12T23:03:08.971Z,99966.00
2023-01-12T23:05:36.353Z,99959.53
2023-01-12T23:08:03.875Z,99968.16
2023-01-12T23:10:30.366Z,99968.09
2023-01-12T23:13:13.967Z,99963.75
2023-01-12T23:15:40.848Z,99955.84
2023-01-12T23:18:07.324Z,99964.47
2023-01-12T23:20:35.699Z,99949.38
2023-01-12T23:23:05.539Z,99958.66
2023-01-12T23:25:32.735Z,99952.19
2023-01-12T23:27:59.412Z,99948.59
2023-01-12T23:30:27.319Z,99950.78
2023-01-12T23:32:53.867Z,99947.84
2023-01-12T23:35:20.372Z,99949.97
2023-01-12T23:37:46.836Z,99933.41
2023-01-12T23:40:13.268Z,99937.69
2023-01-12T23:42:39.713Z,99944.84
2023-01-12T23:45:06.243Z,99944.84
2023-01-12T23:47:33.023Z,99941.97
2023-01-12T23:49:59.579Z,99932.63
2023-01-12T23:52:26.014Z,99937.59
2023-01-12T23:54:55.718Z,99928.97
2023-01-12T23:57:22.768Z,99936.16
2023-01-12T23:59:49.345Z,99940.41
